Time;durP1;ratioP1;P1;durP2;ratioP2;P2;SDS_P1;SDS_P2;PMS_P1;PMS_P2;Temp;Humidity;BMP_temperature;BMP_pressure;BME280_temperature;BME280_humidity;BME280_pressure;Samples;Min_cycle;Max_cycle;Signal;HPM_P1;HPM_P2
2022/02/16 00:01:12;;;;;;;9.20;4.78;;;;;;;;;;5100431;28;20159;-72
2022/02/16 00:03:38;;;;;;;11.63;5.13;;;;;;;;;;5096323;28;20543;-71
2022/02/16 00:06:05;;;;;;;9.90;5.53;;;;;;;;;;5096180;28;20130;-72
2022/02/16 00:08:32;;;;;;;10.27;5.47;;;;;;;;;;5093148;28;20089;-72
2022/02/16 00:10:58;;;;;;;10.77;5.60;;;;;;;;;;5095532;28;20048;-72
2022/02/16 00:13:27;;;;;;;12.10;5.47;;;;;;;;;;5092441;28;20095;-72
2022/02/16 00:15:54;;;;;;;10.50;5.68;;;;;;;;;;5095362;28;20319;-72
2022/02/16 00:18:20;;;;;;;14.10;5.50;;;;;;;;;;5099394;28;20135;-72
2022/02/16 00:20:54;;;;;;;10.98;5.50;;;;;;;;;;5096199;28;20048;-72
2022/02/16 00:23:21;;;;;;;9.20;5.20;;;;;;;;;;5094224;28;20094;-72
2022/02/16 00:25:48;;;;;;;12.95;6.10;;;;;;;;;;5095116;28;20075;-72
2022/02/16 00:28:17;;;;;;;12.40;5.47;;;;;;;;;;5095687;28;20471;-72
2022/02/16 00:30:44;;;;;;;11.93;6.28;;;;;;;;;;5098118;28;20795;-72
2022/02/16 00:33:10;;;;;;;9.50;5.53;;;;;;;;;;5097037;28;20090;-72
2022/02/16 00:35:44;;;;;;;10.18;5.10;;;;;;;;;;5098946;28;20577;-72
2022/02/16 00:38:11;;;;;;;9.45;5.78;;;;;;;;;;5092602;28;20127;-72
2022/02/16 00:40:37;;;;;;;10.20;5.82;;;;;;;;;;5096666;28;20567;-72
2022/02/16 00:43:05;;;;;;;8.85;5.30;;;;;;;;;;5099251;28;20071;-73
2022/02/16 00:45:32;;;;;;;10.98;5.35;;;;;;;;;;5102190;28;20477;-72
2022/02/16 00:48:00;;;;;;;12.18;6.10;;;;;;;;;;5100006;28;20079;-73
2022/02/16 00:50:27;;;;;;;14.80;6.18;;;;;;;;;;5105862;27;20067;-71
2022/02/16 00:52:54;;;;;;;12.65;6.43;;;;;;;;;;5097736;27;20079;-72
2022/02/16 00:55:20;;;;;;;11.80;5.82;;;;;;;;;;5098963;28;20522;-72
2022/02/16 00:57:47;;;;;;;10.70;5.68;;;;;;;;;;5098681;28;20104;-72
2022/02/16 01:00:13;;;;;;;10.48;6.30;;;;;;;;;;5098500;28;20131;-72
2022/02/16 01:02:40;;;;;;;12.30;5.93;;;;;;;;;;5098383;28;20086;-72
2022/02/16 01:05:07;;;;;;;14.70;6.47;;;;;;;;;;5101603;27;20298;-72
2022/02/16 01:07:34;;;;;;;11.98;5.68;;;;;;;;;;5101400;28;20080;-72
2022/02/16 01:10:00;;;;;;;12.85;5.60;;;;;;;;;;5100916;28;20134;-72
2022/02/16 01:12:28;;;;;;;11.48;5.97;;;;;;;;;;5098813;28;20965;-71
2022/02/16 01:14:54;;;;;;;12.48;6.13;;;;;;;;;;5099862;28;20094;-72
2022/02/16 01:17:21;;;;;;;11.27;5.57;;;;;;;;;;5099836;28;20170;-72
2022/02/16 01:19:54;;;;;;;14.60;5.50;;;;;;;;;;5098623;28;20147;-71
2022/02/16 01:22:20;;;;;;;20.88;6.43;;;;;;;;;;5096983;28;20119;-72
2022/02/16 01:24:47;;;;;;;22.45;5.63;;;;;;;;;;5097490;28;20098;-72
2022/02/16 01:27:20;;;;;;;25.58;6.65;;;;;;;;;;5097995;28;20535;-72
2022/02/16 01:29:46;;;;;;;20.70;5.82;;;;;;;;;;5098526;28;20135;-72
2022/02/16 01:32:13;;;;;;;15.73;4.93;;;;;;;;;;5098130;28;20080;-71
2022/02/16 01:34:46;;;;;;;20.77;4.13;;;;;;;;;;5097532;28;20131;-71
2022/02/16 01:37:13;;;;;;;19.10;4.28;;;;;;;;;;5097304;28;20079;-72
2022/02/16 01:39:39;;;;;;;18.77;4.20;;;;;;;;;;5100272;28;20091;-72
2022/02/16 01:42:06;;;;;;;21.67;4.10;;;;;;;;;;5097372;28;20103;-71
2022/02/16 01:44:32;;;;;;;18.85;3.42;;;;;;;;;;5097069;28;20095;-71
2022/02/16 01:47:00;;;;;;;16.35;2.90;;;;;;;;;;5097611;28;20126;-71
2022/02/16 01:49:27;;;;;;;20.42;3.05;;;;;;;;;;5096827;27;20082;-71
2022/02/16 01:51:54;;;;;;;19.77;4.00;;;;;;;;;;5099236;28;20083;-71
2022/02/16 01:54:20;;;;;;;20.20;3.70;;;;;;;;;;5098077;28;20131;-71
2022/02/16 01:56:53;;;;;;;19.08;3.47;;;;;;;;;;5100927;28;20079;-70
2022/02/16 01:59:21;;;;;;;32.83;3.70;;;;;;;;;;5097310;28;20151;-71
2022/02/16 02:01:48;;;;;;;24.20;2.78;;;;;;;;;;5099026;28;20456;-71
2022/02/16 02:04:16;;;;;;;26.83;3.75;;;;;;;;;;5093952;28;20134;-70
2022/02/16 02:06:43;;;;;;;30.25;4.00;;;;;;;;;;5096087;28;20075;-71
2022/02/16 02:09:10;;;;;;;26.17;4.35;;;;;;;;;;5099709;28;20138;-70
2022/02/16 02:11:37;;;;;;;;;;;;;;;;;;5101108;28;20123;-70
2022/02/16 02:14:04;;;;;;;22.70;3.10;;;;;;;;;;5099399;28;20027;-70
2022/02/16 02:16:31;;;;;;;24.38;4.03;;;;;;;;;;5099080;27;20450;-70
2022/02/16 02:19:03;;;;;;;29.50;3.75;;;;;;;;;;5098780;28;20670;-70
2022/02/16 02:21:30;;;;;;;17.70;2.67;;;;;;;;;;5100540;28;20044;-71
2022/02/16 02:23:58;;;;;;;34.35;4.30;;;;;;;;;;5098177;28;20070;-71
2022/02/16 02:26:28;;;;;;;30.33;4.10;;;;;;;;;;5097452;28;20079;-71
2022/02/16 02:28:54;;;;;;;37.15;3.92;;;;;;;;;;5099034;28;20135;-71
2022/02/16 02:31:32;;;;;;;38.42;4.57;;;;;;;;;;5097781;28;20507;-71
2022/02/16 02:34:00;;;;;;;29.17;3.63;;;;;;;;;;5094307;28;20051;-71
2022/02/16 02:36:26;;;;;;;28.50;3.60;;;;;;;;;;5098921;28;20134;-71
2022/02/16 02:38:53;;;;;;;19.08;2.92;;;;;;;;;;5092700;28;20075;-71
2022/02/16 02:41:19;;;;;;;33.47;3.90;;;;;;;;;;5102411;28;20130;-71
2022/02/16 02:43:47;;;;;;;21.98;3.05;;;;;;;;;;5098051;28;20337;-70
2022/02/16 02:46:14;;;;;;;21.17;3.40;;;;;;;;;;5082044;28;20043;-70
2022/02/16 02:48:43;;;;;;;36.70;3.72;;;;;;;;;;5095519;27;20083;-70
2022/02/16 02:51:10;;;;;;;29.63;3.30;;;;;;;;;;5098715;28;20600;-70
2022/02/16 02:53:37;;;;;;;24.60;3.22;;;;;;;;;;5097307;28;20094;-70
2022/02/16 02:56:05;;;;;;;30.48;3.50;;;;;;;;;;5098027;27;20079;-70
2022/02/16 02:58:31;;;;;;;28.13;3.30;;;;;;;;;;5098188;28;20131;-71
2022/02/16 03:00:58;;;;;;;25.48;3.83;;;;;;;;;;5095812;28;20143;-71
2022/02/16 03:03:26;;;;;;;24.92;3.97;;;;;;;;;;5097941;28;20047;-71
2022/02/16 03:05:53;;;;;;;32.83;3.83;;;;;;;;;;5097864;28;20130;-70
2022/02/16 03:08:20;;;;;;;26.05;3.53;;;;;;;;;;5096951;27;20381;-70
2022/02/16 03:10:46;;;;;;;25.23;3.38;;;;;;;;;;5097151;28;20122;-71
2022/02/16 03:13:19;;;;;;;33.90;2.92;;;;;;;;;;5092631;28;20127;-70
2022/02/16 03:15:49;;;;;;;33.15;4.30;;;;;;;;;;5092690;28;20078;-70
2022/02/16 03:18:22;;;;;;;25.23;3.35;;;;;;;;;;5095903;28;20131;-70
2022/02/16 03:20:49;;;;;;;31.38;3.25;;;;;;;;;;5095398;28;20087;-70
2022/02/16 03:23:16;;;;;;;32.50;3.80;;;;;;;;;;5095562;28;20393;-70
2022/02/16 03:25:42;;;;;;;22.00;2.50;;;;;;;;;;5098656;28;20083;-70
2022/02/16 03:28:09;;;;;;;35.17;3.42;;;;;;;;;;5097081;28;20081;-70
2022/02/16 03:30:36;;;;;;;17.83;2.78;;;;;;;;;;5093856;28;20119;-70
2022/02/16 03:33:24;;;;;;;27.27;2.97;;;;;;;;;;5096881;28;20157;-71
2022/02/16 03:35:50;;;;;;;24.23;3.88;;;;;;;;;;5094903;28;20090;-70
2022/02/16 03:38:17;;;;;;;23.80;2.83;;;;;;;;;;5097012;28;20068;-70
2022/02/16 03:40:43;;;;;;;29.60;4.10;;;;;;;;;;5096482;28;20138;-70
2022/02/16 03:43:13;;;;;;;36.85;3.65;;;;;;;;;;5097582;28;20478;-70
2022/02/16 03:45:40;;;;;;;25.45;3.72;;;;;;;;;;5095949;28;20075;-70
2022/02/16 03:48:06;;;;;;;29.52;3.25;;;;;;;;;;5100992;28;20043;-70
2022/02/16 03:50:33;;;;;;;18.95;2.80;;;;;;;;;;5097023;28;20131;-70
2022/02/16 03:53:00;;;;;;;32.38;3.63;;;;;;;;;;5096211;28;20082;-70
2022/02/16 03:55:27;;;;;;;31.75;3.50;;;;;;;;;;5095808;28;20196;-70
2022/02/16 03:57:55;;;;;;;30.70;3.72;;;;;;;;;;5093196;28;20566;-71
2022/02/16 04:00:24;;;;;;;34.22;4.25;;;;;;;;;;5095451;28;20143;-70
2022/02/16 04:02:51;;;;;;;25.52;3.97;;;;;;;;;;5094723;28;20135;-70
2022/02/16 04:05:17;;;;;;;31.00;3.58;;;;;;;;;;5096476;28;20071;-70
2022/02/16 04:07:44;;;;;;;25.65;3.55;;;;;;;;;;5098017;28;20645;-70
2022/02/16 04:10:11;;;;;;;24.85;3.50;;;;;;;;;;5096672;28;20151;-70
2022/02/16 04:12:37;;;;;;;32.90;3.13;;;;;;;;;;5090345;28;20071;-70
2022/02/16 04:15:04;;;;;;;25.95;3.47;;;;;;;;;;5099675;28;20598;-70
2022/02/16 04:17:30;;;;;;;24.80;3.47;;;;;;;;;;5095932;28;20131;-70
2022/02/16 04:19:56;;;;;;;33.85;3.80;;;;;;;;;;5099116;28;20139;-70
2022/02/16 04:22:27;;;;;;;29.90;2.80;;;;;;;;;;5097445;27;20048;-70
2022/02/16 04:24:55;;;;;;;27.45;3.00;;;;;;;;;;5101511;28;20130;-70
2022/02/16 04:27:21;;;;;;;17.70;2.65;;;;;;;;;;5101425;27;20044;-70
2022/02/16 04:29:54;;;;;;;29.58;3.38;;;;;;;;;;5095576;28;20131;-70
2022/02/16 04:32:20;;;;;;;27.83;3.08;;;;;;;;;;5100181;28;20078;-71
2022/02/16 04:34:47;;;;;;;19.38;2.75;;;;;;;;;;5097089;28;20479;-70
2022/02/16 04:37:20;;;;;;;21.50;2.40;;;;;;;;;;5100730;28;20075;-70
2022/02/16 04:39:47;;;;;;;20.25;3.25;;;;;;;;;;5101501;28;20090;-70
2022/02/16 04:42:13;;;;;;;21.77;2.30;;;;;;;;;;5099813;28;20134;-70
2022/02/16 04:44:40;;;;;;;16.70;2.78;;;;;;;;;;5095569;28;20570;-70
2022/02/16 04:47:08;;;;;;;23.80;3.03;;;;;;;;;;5098434;28;20044;-70
2022/02/16 04:49:35;;;;;;;20.00;2.55;;;;;;;;;;5096465;28;20494;-70
2022/02/16 04:52:02;;;;;;;20.02;2.22;;;;;;;;;;5098803;28;20075;-70
2022/02/16 04:54:28;;;;;;;13.32;2.05;;;;;;;;;;5094907;28;20048;-70
2022/02/16 04:56:55;;;;;;;23.70;2.70;;;;;;;;;;5094869;28;20142;-70
2022/02/16 04:59:21;;;;;;;26.40;2.92;;;;;;;;;;5089472;28;20515;-71
2022/02/16 05:01:48;;;;;;;23.45;2.28;;;;;;;;;;5090227;28;20170;-70
2022/02/16 05:04:14;;;;;;;23.08;2.88;;;;;;;;;;5097552;28;20129;-70
2022/02/16 05:06:42;;;;;;;11.13;1.90;;;;;;;;;;5100698;27;20071;-70
2022/02/16 05:09:08;;;;;;;21.58;2.55;;;;;;;;;;5100148;28;20136;-70
2022/02/16 05:11:35;;;;;;;24.55;3.15;;;;;;;;;;5095907;28;20134;-70
2022/02/16 05:14:02;;;;;;;23.80;2.50;;;;;;;;;;5099508;28;20098;-70
2022/02/16 05:16:29;;;;;;;22.88;3.08;;;;;;;;;;5099695;28;20052;-70
2022/02/16 05:18:56;;;;;;;28.77;2.67;;;;;;;;;;5094268;28;20567;-70
2022/02/16 05:21:25;;;;;;;19.20;2.50;;;;;;;;;;5089394;28;20120;-70
2022/02/16 05:23:54;;;;;;;17.25;2.45;;;;;;;;;;5088833;28;20048;-70
2022/02/16 05:26:23;;;;;;;21.75;2.45;;;;;;;;;;5088782;27;20075;-70
2022/02/16 05:28:49;;;;;;;20.27;2.33;;;;;;;;;;5087012;28;20044;-70
2022/02/16 05:31:16;;;;;;;33.10;5.57;;;;;;;;;;5087256;27;20052;-70
2022/02/16 05:33:42;;;;;;;16.45;2.17;;;;;;;;;;5089348;28;20135;-70
2022/02/16 05:36:09;;;;;;;29.17;2.70;;;;;;;;;;5086187;28;20101;-70
2022/02/16 05:38:36;;;;;;;27.15;2.42;;;;;;;;;;5087243;28;20097;-70
2022/02/16 05:41:02;;;;;;;24.65;2.78;;;;;;;;;;5086458;28;20146;-70
2022/02/16 05:43:29;;;;;;;26.60;3.17;;;;;;;;;;5087084;28;20146;-70
2022/02/16 05:45:55;;;;;;;15.48;2.85;;;;;;;;;;5088908;28;20167;-70
2022/02/16 05:48:22;;;;;;;25.92;3.22;;;;;;;;;;5086311;28;20114;-70
2022/02/16 05:50:49;;;;;;;22.70;2.60;;;;;;;;;;5085992;28;20134;-70
2022/02/16 05:53:16;;;;;;;21.48;2.38;;;;;;;;;;5086679;28;20059;-70
2022/02/16 05:55:42;;;;;;;29.25;2.72;;;;;;;;;;5086847;28;20882;-70
2022/02/16 05:58:09;;;;;;;30.35;2.67;;;;;;;;;;5086709;28;20950;-70
2022/02/16 06:00:35;;;;;;;23.13;2.67;;;;;;;;;;5086677;28;20167;-70
2022/02/16 06:03:02;;;;;;;19.50;2.88;;;;;;;;;;5086018;28;20321;-70
2022/02/16 06:05:30;;;;;;;24.58;3.05;;;;;;;;;;5087230;28;20178;-70
2022/02/16 06:07:57;;;;;;;22.40;2.63;;;;;;;;;;5097051;28;20127;-70
2022/02/16 06:10:25;;;;;;;23.52;2.95;;;;;;;;;;5087008;28;20051;-70
2022/02/16 06:13:00;;;;;;;21.80;2.58;;;;;;;;;;5085866;28;20695;-70
2022/02/16 06:15:27;;;;;;;28.77;2.67;;;;;;;;;;5087124;28;20147;-70
2022/02/16 06:17:54;;;;;;;28.98;2.80;;;;;;;;;;5086871;28;20182;-70
2022/02/16 06:20:27;;;;;;;22.23;3.13;;;;;;;;;;5091568;28;20059;-70
2022/02/16 06:22:56;;;;;;;32.88;3.55;;;;;;;;;;5096233;28;20098;-70
2022/02/16 06:25:23;;;;;;;30.98;4.30;;;;;;;;;;5092028;28;20102;-69
2022/02/16 06:27:56;;;;;;;28.73;3.40;;;;;;;;;;5086157;28;20130;-69
2022/02/16 06:30:22;;;;;;;24.25;3.15;;;;;;;;;;5086378;28;20513;-69
2022/02/16 06:32:49;;;;;;;24.55;2.95;;;;;;;;;;5087702;28;20063;-69
2022/02/16 06:35:16;;;;;;;26.27;3.42;;;;;;;;;;5087031;28;20082;-70
2022/02/16 06:37:45;;;;;;;29.75;3.85;;;;;;;;;;5098146;28;20140;-71
2022/02/16 06:40:11;;;;;;;27.15;3.40;;;;;;;;;;5100193;28;20040;-70
2022/02/16 06:42:39;;;;;;;34.97;3.50;;;;;;;;;;5097707;28;20166;-70
2022/02/16 06:45:07;;;;;;;37.00;4.40;;;;;;;;;;5091261;28;20178;-69
2022/02/16 06:47:33;;;;;;;;;;;;;;;;;;5088776;28;20120;-70
2022/02/16 06:50:02;;;;;;;27.83;2.88;;;;;;;;;;5099220;27;19966;-70
2022/02/16 06:52:29;;;;;;;33.55;4.00;;;;;;;;;;5092697;28;20465;-70
2022/02/16 06:54:56;;;;;;;36.42;4.00;;;;;;;;;;5085650;28;20138;-70
2022/02/16 06:57:23;;;;;;;34.10;4.00;;;;;;;;;;5087586;28;20516;-70
2022/02/16 06:59:49;;;;;;;25.45;4.10;;;;;;;;;;5085762;28;20135;-71
2022/02/16 07:02:15;;;;;;;35.15;4.07;;;;;;;;;;5086485;28;20171;-70
2022/02/16 07:04:43;;;;;;;31.33;4.07;;;;;;;;;;5085363;28;20127;-72
2022/02/16 07:07:10;;;;;;;33.15;3.95;;;;;;;;;;5095253;28;20134;-72
2022/02/16 07:09:36;;;;;;;37.15;3.55;;;;;;;;;;5096422;28;20557;-73
2022/02/16 07:12:03;;;;;;;43.65;4.53;;;;;;;;;;5096599;28;20613;-72
2022/02/16 07:14:29;;;;;;;36.13;4.00;;;;;;;;;;5086427;28;20569;-72
2022/02/16 07:16:57;;;;;;;34.30;4.13;;;;;;;;;;5084632;28;20517;-72
2022/02/16 07:19:26;;;;;;;46.80;5.15;;;;;;;;;;5084602;28;20174;-72
2022/02/16 07:21:53;;;;;;;42.53;5.50;;;;;;;;;;5084252;28;20051;-71
2022/02/16 07:24:22;;;;;;;40.05;4.93;;;;;;;;;;5085468;28;20055;-71
2022/02/16 07:26:49;;;;;;;29.35;4.75;;;;;;;;;;5083966;28;20127;-71
2022/02/16 07:29:16;;;;;;;47.58;5.30;;;;;;;;;;5084763;28;20047;-71
2022/02/16 07:31:42;;;;;;;43.17;5.68;;;;;;;;;;5095011;28;20557;-71
2022/02/16 07:34:09;;;;;;;51.25;6.82;;;;;;;;;;5095793;28;20131;-71
2022/02/16 07:36:36;;;;;;;36.95;5.90;;;;;;;;;;5096635;28;20156;-71
2022/02/16 07:39:02;;;;;;;32.60;5.35;;;;;;;;;;5094736;28;20052;-71
2022/02/16 07:41:29;;;;;;;43.95;5.55;;;;;;;;;;5088254;28;20575;-71
2022/02/16 07:43:55;;;;;;;44.92;5.93;;;;;;;;;;5086473;28;20106;-71
2022/02/16 07:46:23;;;;;;;35.67;4.85;;;;;;;;;;5080225;28;20658;-72
2022/02/16 07:48:50;;;;;;;46.40;6.90;;;;;;;;;;5083918;28;20496;-72
2022/02/16 07:51:17;;;;;;;36.22;4.43;;;;;;;;;;5086993;28;20052;-72
2022/02/16 07:53:43;;;;;;;51.05;6.82;;;;;;;;;;5095549;28;20133;-71
2022/02/16 07:56:12;;;;;;;43.20;6.60;;;;;;;;;;5100569;27;20097;-71
2022/02/16 07:58:38;;;;;;;41.80;5.03;;;;;;;;;;5080403;28;20094;-71
2022/02/16 08:01:04;;;;;;;34.92;4.88;;;;;;;;;;5088777;28;20139;-71
2022/02/16 08:03:33;;;;;;;46.35;6.50;;;;;;;;;;5089683;28;20044;-70
2022/02/16 08:06:03;;;;;;;42.75;5.43;;;;;;;;;;5089521;28;20439;-72
2022/02/16 08:08:31;;;;;;;79.07;22.67;;;;;;;;;;5087764;28;20048;-71
2022/02/16 08:11:04;;;;;;;41.90;5.03;;;;;;;;;;5089297;28;20614;-71
2022/02/16 08:13:30;;;;;;;56.85;5.97;;;;;;;;;;5088512;28;20155;-71
2022/02/16 08:15:57;;;;;;;53.95;6.15;;;;;;;;;;5070487;28;20151;-72
2022/02/16 08:18:27;;;;;;;46.65;5.85;;;;;;;;;;5095852;28;20078;-71
2022/02/16 08:20:53;;;;;;;40.72;6.00;;;;;;;;;;5099666;28;20101;-71
2022/02/16 08:23:20;;;;;;;56.20;6.45;;;;;;;;;;5099857;28;20098;-72
2022/02/16 08:25:56;;;;;;;44.83;5.13;;;;;;;;;;5097313;28;20055;-72
2022/02/16 08:28:23;;;;;;;44.67;5.38;;;;;;;;;;5099498;28;20472;-72
2022/02/16 08:30:49;;;;;;;37.60;5.57;;;;;;;;;;5100228;28;20542;-71
2022/02/16 08:33:16;;;;;;;58.30;6.88;;;;;;;;;;5090529;28;20181;-71
2022/02/16 08:35:42;;;;;;;42.78;5.90;;;;;;;;;;5086075;28;20206;-70
2022/02/16 08:38:09;;;;;;;35.67;5.72;;;;;;;;;;5087734;28;20166;-70
2022/02/16 08:40:36;;;;;;;44.22;5.35;;;;;;;;;;5088419;28;20082;-70
2022/02/16 08:43:23;;;;;;;42.80;4.70;;;;;;;;;;5086906;28;20040;-71
2022/02/16 08:45:50;;;;;;;47.63;6.70;;;;;;;;;;5085196;28;20166;-71
2022/02/16 08:48:16;;;;;;;43.78;4.93;;;;;;;;;;5090195;28;20134;-71
2022/02/16 08:50:43;;;;;;;39.83;5.40;;;;;;;;;;5087235;28;20143;-70
2022/02/16 08:53:10;;;;;;;30.88;4.30;;;;;;;;;;5088360;28;20134;-70
2022/02/16 08:55:39;;;;;;;40.40;5.18;;;;;;;;;;5087542;28;20040;-70
2022/02/16 08:58:05;;;;;;;40.67;6.28;;;;;;;;;;5089972;28;20094;-69
2022/02/16 09:00:32;;;;;;;34.90;4.40;;;;;;;;;;5086725;28;20039;-70
2022/02/16 09:02:59;;;;;;;35.37;4.90;;;;;;;;;;5088414;28;20134;-70
2022/02/16 09:05:26;;;;;;;44.90;4.88;;;;;;;;;;5086874;28;20988;-71
2022/02/16 09:08:01;;;;;;;27.63;4.10;;;;;;;;;;5094672;28;20155;-70
2022/02/16 09:10:27;;;;;;;37.40;5.45;;;;;;;;;;5092810;28;20059;-69
2022/02/16 09:12:54;;;;;;;45.90;3.97;;;;;;;;;;5089179;28;20139;-70
2022/02/16 09:15:27;;;;;;;41.03;5.85;;;;;;;;;;5094051;28;20075;-70
2022/02/16 09:17:54;;;;;;;33.83;4.65;;;;;;;;;;5099267;28;20047;-70
2022/02/16 09:20:21;;;;;;;31.90;3.97;;;;;;;;;;5098978;28;20527;-71
2022/02/16 09:22:48;;;;;;;39.45;4.60;;;;;;;;;;5085187;28;20680;-71
2022/02/16 09:25:19;;;;;;;44.03;4.10;;;;;;;;;;5087509;28;20062;-71
2022/02/16 09:27:47;;;;;;;27.00;4.43;;;;;;;;;;5085575;28;20047;-71
2022/02/16 09:30:27;;;;;;;41.13;5.25;;;;;;;;;;5087294;28;20419;-70
2022/02/16 09:32:53;;;;;;;36.13;4.93;;;;;;;;;;5086259;28;20052;-71
2022/02/16 09:35:20;;;;;;;37.47;4.43;;;;;;;;;;5086606;28;20057;-70
2022/02/16 09:37:51;;;;;;;46.08;5.50;;;;;;;;;;5065062;28;20137;-71
2022/02/16 09:40:18;;;;;;;38.58;4.35;;;;;;;;;;5066856;28;20782;-71
2022/02/16 09:42:44;;;;;;;33.78;4.50;;;;;;;;;;5065215;28;20063;-70
2022/02/16 09:45:12;;;;;;;46.70;5.33;;;;;;;;;;5064208;28;20139;-70
2022/02/16 09:47:40;;;;;;;49.28;5.47;;;;;;;;;;5070476;28;20402;-71
2022/02/16 09:50:07;;;;;;;37.40;4.93;;;;;;;;;;5075753;28;20532;-70
2022/02/16 09:52:35;;;;;;;32.53;4.60;;;;;;;;;;5075024;28;20086;-70
2022/02/16 09:55:02;;;;;;;37.35;5.28;;;;;;;;;;5077238;28;20040;-71
2022/02/16 09:57:28;;;;;;;32.70;5.10;;;;;;;;;;5076299;28;20083;-70
2022/02/16 09:59:58;;;;;;;44.97;5.25;;;;;;;;;;5078008;28;20055;-72
2022/02/16 10:02:33;;;;;;;37.83;5.57;;;;;;;;;;5075522;28;20073;-72
2022/02/16 10:05:02;;;;;;;42.00;5.53;;;;;;;;;;5074059;28;20123;-72
2022/02/16 10:07:30;;;;;;;36.38;4.35;;;;;;;;;;5078541;28;20575;-71
2022/02/16 10:09:56;;;;;;;;;;;;;;;;;;5077456;28;20106;-73
2022/02/16 10:12:33;;;;;;;34.92;4.85;;;;;;;;;;5076741;28;19959;-72
2022/02/16 10:15:02;;;;;;;33.90;4.78;;;;;;;;;;5076093;28;20076;-72
2022/02/16 10:17:30;;;;;;;34.03;4.47;;;;;;;;;;5074280;28;20048;-70
2022/02/16 10:20:00;;;;;;;34.55;5.22;;;;;;;;;;5076842;28;20094;-72
2022/02/16 10:22:31;;;;;;;39.65;6.18;;;;;;;;;;5079709;28;20406;-70
2022/02/16 10:25:24;;;;;;;45.50;6.30;;;;;;;;;;5078364;28;20526;-72
2022/02/16 10:28:03;;;;;;;29.92;4.45;;;;;;;;;;5078533;28;20561;-71
2022/02/16 10:30:30;;;;;;;27.70;3.60;;;;;;;;;;5077631;28;20143;-71
2022/02/16 10:33:16;;;;;;;27.67;3.97;;;;;;;;;;5072898;28;20078;-72
2022/02/16 10:35:45;;;;;;;25.13;4.27;;;;;;;;;;5078558;28;20090;-71
2022/02/16 10:38:12;;;;;;;;;;;;;;;;;;5099156;28;20043;-72
2022/02/16 10:40:42;;;;;;;30.77;4.43;;;;;;;;;;5096036;28;20026;-71
2022/02/16 10:43:10;;;;;;;32.25;4.13;;;;;;;;;;5095314;28;20531;-71
2022/02/16 10:45:43;;;;;;;33.88;4.47;;;;;;;;;;5097460;28;20174;-71
2022/02/16 10:48:11;;;;;;;30.23;3.53;;;;;;;;;;5094350;28;20056;-71
2022/02/16 10:50:47;;;;;;;40.05;4.53;;;;;;;;;;5094967;28;20120;-70
2022/02/16 10:53:23;;;;;;;28.38;4.32;;;;;;;;;;5097575;28;20044;-70
2022/02/16 10:55:50;;;;;;;38.03;5.80;;;;;;;;;;5097680;28;20706;-70
2022/02/16 10:58:26;;;;;;;29.83;4.50;;;;;;;;;;5098620;28;20139;-71
2022/02/16 11:00:54;;;;;;;27.27;4.88;;;;;;;;;;5099106;28;20581;-72
2022/02/16 11:03:32;;;;;;;31.65;4.82;;;;;;;;;;5097793;28;20592;-71
2022/02/16 11:06:01;;;;;;;30.55;4.05;;;;;;;;;;5093871;28;20073;-70
2022/02/16 11:08:31;;;;;;;35.80;4.85;;;;;;;;;;5098213;28;20462;-70
2022/02/16 11:11:18;;;;;;;30.02;5.13;;;;;;;;;;5095767;28;20066;-70
2022/02/16 11:14:07;;;;;;;37.30;4.15;;;;;;;;;;5097547;28;20511;-70
2022/02/16 11:16:34;;;;;;;33.67;4.70;;;;;;;;;;5095955;28;20079;-70
2022/02/16 11:19:19;;;;;;;35.88;4.85;;;;;;;;;;5102055;28;20892;-71
2022/02/16 11:21:59;;;;;;;34.70;5.15;;;;;;;;;;5094497;28;20090;-70
2022/02/16 11:24:44;;;;;;;50.72;5.07;;;;;;;;;;5095667;28;20083;-70
2022/02/16 11:27:20;;;;;;;32.70;4.22;;;;;;;;;;5099172;28;20071;-70
2022/02/16 11:29:54;;;;;;;50.03;13.00;;;;;;;;;;5096895;28;20071;-71
2022/02/16 11:32:26;;;;;;;38.92;4.88;;;;;;;;;;5094319;28;20044;-71
2022/02/16 11:35:10;;;;;;;30.23;5.00;;;;;;;;;;5094993;28;20119;-71
2022/02/16 11:38:22;;;;;;;31.92;5.10;;;;;;;;;;5077850;28;20055;-71
2022/02/16 11:40:57;;;;;;;27.08;4.13;;;;;;;;;;5078504;28;20048;-71
2022/02/16 11:43:46;;;;;;;29.67;4.30;;;;;;;;;;5079664;28;20048;-71
2022/02/16 11:46:32;;;;;;;23.35;3.38;;;;;;;;;;5077331;28;20101;-71
2022/02/16 11:49:06;;;;;;;21.30;3.83;;;;;;;;;;5076469;28;20072;-70
2022/02/16 11:51:34;;;;;;;25.33;4.80;;;;;;;;;;5076762;28;20450;-71
2022/02/16 11:54:19;;;;;;;24.35;4.70;;;;;;;;;;5076816;28;20097;-70
2022/02/16 11:57:32;;;;;;;36.33;8.70;;;;;;;;;;5078762;28;20084;-70
2022/02/16 12:00:00;;;;;;;161.43;64.97;;;;;;;;;;5079201;28;20136;-70
2022/02/16 12:02:27;;;;;;;79.28;25.20;;;;;;;;;;5077127;28;20052;-70
2022/02/16 12:04:57;;;;;;;45.83;10.43;;;;;;;;;;5075401;28;20515;-70
2022/02/16 12:07:48;;;;;;;49.67;17.60;;;;;;;;;;5072912;28;20077;-70
2022/02/16 12:10:19;;;;;;;38.75;12.73;;;;;;;;;;5067374;28;20095;-71
2022/02/16 12:12:47;;;;;;;28.83;9.90;;;;;;;;;;5078379;28;20105;-71
2022/02/16 12:15:33;;;;;;;29.25;5.68;;;;;;;;;;5082335;28;20063;-71
2022/02/16 12:18:00;;;;;;;32.00;4.37;;;;;;;;;;5080458;28;20071;-71
2022/02/16 12:20:28;;;;;;;24.05;5.63;;;;;;;;;;5077511;28;20059;-71
2022/02/16 12:23:02;;;;;;;19.67;4.25;;;;;;;;;;5078369;28;20044;-70
2022/02/16 12:25:30;;;;;;;97.93;38.83;;;;;;;;;;5078792;28;20079;-70
2022/02/16 12:28:01;;;;;;;46.97;17.08;;;;;;;;;;5077098;28;20076;-70
2022/02/16 12:30:38;;;;;;;31.98;11.35;;;;;;;;;;5080797;28;20044;-70
2022/02/16 12:33:25;;;;;;;28.23;4.32;;;;;;;;;;5076714;28;20522;-70
2022/02/16 12:35:52;;;;;;;26.03;4.90;;;;;;;;;;5080140;28;20603;-69
2022/02/16 12:38:27;;;;;;;22.55;7.68;;;;;;;;;;5093931;28;20058;-70
2022/02/16 12:40:55;;;;;;;27.02;5.03;;;;;;;;;;5096611;28;20086;-70
2022/02/16 12:43:22;;;;;;;34.33;8.05;;;;;;;;;;5095084;28;20447;-70
2022/02/16 12:46:02;;;;;;;75.15;28.27;;;;;;;;;;5095306;27;20098;-71
2022/02/16 12:48:29;;;;;;;149.32;59.58;;;;;;;;;;5096883;28;20117;-70
2022/02/16 12:50:57;;;;;;;27.98;4.50;;;;;;;;;;5099253;28;20490;-70
2022/02/16 12:53:33;;;;;;;46.20;12.10;;;;;;;;;;5100506;27;20101;-71
2022/02/16 12:56:02;;;;;;;;;;;;;;;;;;5101798;28;20071;-70
2022/02/16 12:58:30;;;;;;;48.70;16.48;;;;;;;;;;5099876;28;19974;-69
2022/02/16 13:00:56;;;;;;;29.33;7.75;;;;;;;;;;5098544;28;20135;-70
2022/02/16 13:03:26;;;;;;;50.53;18.90;;;;;;;;;;5098063;28;20051;-70
2022/02/16 13:05:53;;;;;;;50.17;15.15;;;;;;;;;;5094947;28;20040;-70
2022/02/16 13:08:22;;;;;;;36.90;8.97;;;;;;;;;;5100055;28;20075;-70
2022/02/16 13:10:49;;;;;;;37.42;9.93;;;;;;;;;;5101239;28;20563;-70
2022/02/16 13:13:24;;;;;;;64.85;28.00;;;;;;;;;;5100906;27;20127;-70
2022/02/16 13:15:53;;;;;;;77.05;32.78;;;;;;;;;;5097791;28;20076;-70
2022/02/16 13:18:43;;;;;;;100.50;41.03;;;;;;;;;;5094799;28;20051;-70
2022/02/16 13:21:13;;;;;;;37.17;13.80;;;;;;;;;;5097354;28;20620;-69
2022/02/16 13:23:40;;;;;;;32.25;7.53;;;;;;;;;;5098476;28;20298;-69
2022/02/16 13:26:08;;;;;;;29.90;4.82;;;;;;;;;;5100651;27;20131;-69
2022/02/16 13:28:35;;;;;;;25.83;4.72;;;;;;;;;;5096932;28;20083;-70
2022/02/16 13:31:15;;;;;;;30.20;4.53;;;;;;;;;;5099151;28;20526;-69
2022/02/16 13:34:04;;;;;;;16.67;4.13;;;;;;;;;;5097311;28;20319;-70
2022/02/16 13:36:36;;;;;;;25.63;4.32;;;;;;;;;;5095083;27;20113;-69
2022/02/16 13:39:24;;;;;;;29.80;3.90;;;;;;;;;;5097577;28;20047;-69
2022/02/16 13:42:01;;;;;;;32.00;4.25;;;;;;;;;;5097053;28;20121;-70
2022/02/16 13:44:38;;;;;;;30.05;5.45;;;;;;;;;;5100443;28;20063;-70
2022/02/16 13:47:16;;;;;;;32.38;8.57;;;;;;;;;;5098016;28;20044;-69
2022/02/16 13:49:57;;;;;;;28.48;11.05;;;;;;;;;;5096753;28;20134;-70
2022/02/16 13:52:35;;;;;;;25.30;3.88;;;;;;;;;;5095214;28;20077;-70
2022/02/16 13:55:01;;;;;;;;;;;;;;;;;;5095478;28;20125;-70
2022/02/16 13:57:30;;;;;;;18.77;4.00;;;;;;;;;;5094783;28;20019;-70
2022/02/16 14:00:10;;;;;;;23.55;4.72;;;;;;;;;;5094240;28;20540;-70
2022/02/16 14:03:15;;;;;;;23.38;4.07;;;;;;;;;;5097820;28;20151;-70
2022/02/16 14:05:49;;;;;;;19.08;3.72;;;;;;;;;;5101073;28;20079;-69
2022/02/16 14:08:16;;;;;;;;;;;;;;;;;;5090695;28;20051;-70
2022/02/16 14:10:45;;;;;;;33.88;3.65;;;;;;;;;;5094546;28;19971;-70
2022/02/16 14:13:16;;;;;;;21.88;3.83;;;;;;;;;;5097666;28;20540;-70
2022/02/16 14:15:43;;;;;;;21.00;3.60;;;;;;;;;;5078491;28;20052;-70
2022/02/16 14:18:09;;;;;;;29.17;4.45;;;;;;;;;;5093867;28;20130;-70
2022/02/16 14:20:49;;;;;;;24.52;4.05;;;;;;;;;;5094230;28;20047;-69
2022/02/16 14:23:16;;;;;;;26.73;3.97;;;;;;;;;;5092632;28;20075;-70
2022/02/16 14:25:48;;;;;;;27.33;3.97;;;;;;;;;;5094164;28;20538;-69
2022/02/16 14:28:24;;;;;;;17.63;2.70;;;;;;;;;;5091923;28;20043;-69
2022/02/16 14:30:51;;;;;;;24.35;2.90;;;;;;;;;;5096033;28;20539;-70
2022/02/16 14:33:17;;;;;;;24.40;3.38;;;;;;;;;;5096044;28;20345;-69
2022/02/16 14:35:44;;;;;;;22.58;3.38;;;;;;;;;;5095144;28;20079;-69
2022/02/16 14:38:10;;;;;;;17.27;3.03;;;;;;;;;;5095188;28;20084;-70
2022/02/16 14:40:37;;;;;;;19.52;3.60;;;;;;;;;;5095859;28;20051;-69
2022/02/16 14:43:19;;;;;;;19.42;3.13;;;;;;;;;;5090950;28;20050;-70
2022/02/16 14:45:53;;;;;;;13.10;2.67;;;;;;;;;;5098261;28;20452;-70